Time;durP1;ratioP1;P1;durP2;ratioP2;P2;SDS_P1;SDS_P2;PMS_P1;PMS_P2;Temp;Humidity;BMP_temperature;BMP_pressure;BME280_temperature;BME280_humidity;BME280_pressure;Samples;Min_cycle;Max_cycle;Signal;HPM_P1;HPM_P2
2020/12/10 00:00:54;;;;;;;;;;;;;;;20.84;38.10;100635.28;5096840;28;787;-49
2020/12/10 00:03:19;;;;;;;;;;;;;;;20.41;38.74;100627.25;5096422;28;768;-55
2020/12/10 00:05:44;;;;;;;;;;;;;;;20.10;39.33;100622.22;5096126;28;819;-50
2020/12/10 00:08:10;;;;;;;;;;;;;;;19.69;40.38;100636.63;5096470;28;894;-50
2020/12/10 00:10:35;;;;;;;;;;;;;;;20.12;39.59;100630.22;5096078;28;1990;-50
2020/12/10 00:13:01;;;;;;;;;;;;;;;20.84;38.10;100624.22;5093683;28;829;-54
2020/12/10 00:15:26;;;;;;;;;;;;;;;20.37;38.89;100609.63;5096690;28;784;-50
2020/12/10 00:17:52;;;;;;;;;;;;;;;20.23;39.08;100611.53;5095982;28;1043;-55
2020/12/10 00:20:17;;;;;;;;;;;;;;;19.31;41.25;100617.28;5094882;28;772;-53
2020/12/10 00:22:42;;;;;;;;;;;;;;;20.16;39.57;100612.75;5096602;28;815;-54
2020/12/10 00:25:08;;;;;;;;;;;;;;;20.95;37.75;100610.22;5095857;28;1005;-55
2020/12/10 00:27:33;;;;;;;;;;;;;;;20.36;38.88;100605.22;5096203;28;807;-49
2020/12/10 00:29:59;;;;;;;;;;;;;;;20.21;39.16;100603.53;5094607;28;938;-50
2020/12/10 00:32:25;;;;;;;;;;;;;;;19.50;40.88;100600.75;5095952;28;1926;-54
2020/12/10 00:34:51;;;;;;;;;;;;;;;20.16;39.62;100598.94;5095989;28;828;-56
2020/12/10 00:37:17;;;;;;;;;;;;;;;21.03;37.76;100590.16;5094767;28;813;-55
2020/12/10 00:39:42;;;;;;;;;;;;;;;20.49;38.55;100593.38;5095934;28;780;-56
2020/12/10 00:42:08;;;;;;;;;;;;;;;20.33;39.11;100603.88;5095736;28;958;-56
2020/12/10 00:44:33;;;;;;;;;;;;;;;19.69;40.61;100602.72;5077528;28;956;-56
2020/12/10 00:46:59;;;;;;;;;;;;;;;19.78;40.54;100587.94;5096271;28;827;-56
2020/12/10 00:49:25;;;;;;;;;;;;;;;20.70;38.53;100581.16;5095873;28;743;-50
2020/12/10 00:51:50;;;;;;;;;;;;;;;20.34;39.10;100572.41;5095779;28;1976;-55
2020/12/10 00:54:18;;;;;;;;;;;;;;;20.26;39.35;100569.50;5078409;28;1054;-56
2020/12/10 00:56:44;;;;;;;;;;;;;;;19.48;40.96;100570.72;5095610;28;965;-50
2020/12/10 00:59:09;;;;;;;;;;;;;;;19.86;40.20;100563.56;5095645;28;796;-56
2020/12/10 01:01:35;;;;;;;;;;;;;;;20.62;38.62;100557.78;5095936;28;759;-54
2020/12/10 01:04:00;;;;;;;;;;;;;;;20.28;39.31;100548.75;5094635;28;776;-56
2020/12/10 01:06:26;;;;;;;;;;;;;;;20.13;39.58;100547.09;5095641;28;787;-51
2020/12/10 01:08:51;;;;;;;;;;;;;;;19.51;41.11;100543.69;5095928;28;780;-56
2020/12/10 01:11:17;;;;;;;;;;;;;;;20.04;39.84;100537.88;5095366;28;1917;-55
2020/12/10 01:13:43;;;;;;;;;;;;;;;20.71;38.31;100544.13;5095834;28;803;-56
2020/12/10 01:16:08;;;;;;;;;;;;;;;20.29;39.22;100538.53;5094735;28;775;-56
2020/12/10 01:18:33;;;;;;;;;;;;;;;20.23;39.38;100531.44;5095388;28;1110;-53
2020/12/10 01:20:59;;;;;;;;;;;;;;;19.51;41.10;100521.63;5095694;28;878;-56
2020/12/10 01:23:25;;;;;;;;;;;;;;;20.14;39.70;100526.63;5097003;28;743;-55
2020/12/10 01:25:50;;;;;;;;;;;;;;;20.77;38.53;100527.09;5099313;28;961;-49
2020/12/10 01:28:15;;;;;;;;;;;;;;;20.22;39.48;100527.88;5099221;28;819;-54
2020/12/10 01:30:41;;;;;;;;;;;;;;;20.02;39.75;100523.56;5099473;28;2051;-53
2020/12/10 01:33:06;;;;;;;;;;;;;;;19.34;41.60;100520.19;5099205;28;840;-56
2020/12/10 01:35:32;;;;;;;;;;;;;;;20.28;39.45;100514.81;5099014;28;827;-56
2020/12/10 01:37:57;;;;;;;;;;;;;;;20.66;38.56;100514.59;5098960;28;850;-53
2020/12/10 01:40:23;;;;;;;;;;;;;;;20.49;38.93;100510.50;5099165;28;961;-56
2020/12/10 01:42:48;;;;;;;;;;;;;;;20.00;39.84;100512.81;5098906;28;768;-56
2020/12/10 01:45:14;;;;;;;;;;;;;;;19.62;40.98;100503.78;5099116;28;755;-50
2020/12/10 01:47:39;;;;;;;;;;;;;;;20.55;38.96;100508.47;5099143;28;815;-56
2020/12/10 01:50:04;;;;;;;;;;;;;;;20.75;38.41;100495.38;5097521;28;748;-50
2020/12/10 01:52:30;;;;;;;;;;;;;;;20.34;39.26;100485.94;5099019;28;1972;-55
2020/12/10 01:54:56;;;;;;;;;;;;;;;19.96;40.13;100483.38;5098744;28;985;-50
2020/12/10 01:57:21;;;;;;;;;;;;;;;19.31;41.93;100479.44;5098704;28;771;-55
2020/12/10 01:59:47;;;;;;;;;;;;;;;20.41;39.45;100474.50;5098720;28;795;-49
2020/12/10 02:02:13;;;;;;;;;;;;;;;20.88;38.12;100466.13;5097244;28;834;-52
2020/12/10 02:04:38;;;;;;;;;;;;;;;20.27;39.57;100469.81;5096956;28;827;-51
2020/12/10 02:07:04;;;;;;;;;;;;;;;20.22;39.54;100455.28;5098933;28;744;-52
2020/12/10 02:09:29;;;;;;;;;;;;;;;19.36;41.36;100462.00;5097046;28;882;-54
2020/12/10 02:11:55;;;;;;;;;;;;;;;20.07;40.10;100453.63;5097811;28;1917;-52
2020/12/10 02:14:21;;;;;;;;;;;;;;;20.88;38.25;100455.06;5098555;28;551;-55
2020/12/10 02:16:52;;;;;;;;;;;;;;;20.32;39.63;100461.41;5098192;28;756;-56
2020/12/10 02:19:17;;;;;;;;;;;;;;;20.17;39.74;100450.66;5098171;28;1072;-56
2020/12/10 02:21:42;;;;;;;;;;;;;;;19.41;41.53;100442.63;5098259;28;779;-51
2020/12/10 02:24:08;;;;;;;;;;;;;;;20.17;39.92;100437.72;5097042;28;804;-55
2020/12/10 02:26:33;;;;;;;;;;;;;;;20.93;38.36;100441.09;5097879;28;953;-56
2020/12/10 02:28:59;;;;;;;;;;;;;;;20.43;39.30;100445.47;5098091;28;791;-56
2020/12/10 02:31:25;;;;;;;;;;;;;;;20.18;39.70;100439.31;5098147;28;1910;-51
2020/12/10 02:33:50;;;;;;;;;;;;;;;19.33;41.58;100427.56;5098232;28;800;-49
2020/12/10 02:36:16;;;;;;;;;;;;;;;20.14;40.29;100430.00;5096994;28;831;-56
2020/12/10 02:38:42;;;;;;;;;;;;;;;20.77;38.82;100427.63;5098234;28;850;-55
2020/12/10 02:41:07;;;;;;;;;;;;;;;21.32;37.61;100423.88;5097483;28;1012;-51
2020/12/10 02:43:33;;;;;;;;;;;;;;;20.70;38.98;100427.25;5097840;28;783;-55
2020/12/10 02:45:58;;;;;;;;;;;;;;;20.38;39.73;100419.91;5098041;28;803;-54
2020/12/10 02:48:23;;;;;;;;;;;;;;;19.63;40.93;100428.19;5097710;28;783;-53
2020/12/10 02:50:50;;;;;;;;;;;;;;;19.89;40.71;100427.75;5097459;28;1914;-57
2020/12/10 02:53:16;;;;;;;;;;;;;;;20.81;38.91;100423.13;5096523;28;868;-55
2020/12/10 02:55:41;;;;;;;;;;;;;;;20.52;39.21;100427.06;5097392;28;992;-56
2020/12/10 02:58:07;;;;;;;;;;;;;;;20.32;39.87;100413.66;5097505;28;819;-50
2020/12/10 03:00:32;;;;;;;;;;;;;;;19.54;41.29;100408.75;5097598;28;834;-56
2020/12/10 03:02:57;;;;;;;;;;;;;;;20.18;40.15;100411.72;5097725;28;748;-57
2020/12/10 03:05:23;;;;;;;;;;;;;;;20.87;38.71;100403.66;5097315;28;803;-56
2020/12/10 03:07:48;;;;;;;;;;;;;;;20.26;39.77;100404.66;5097483;28;764;-51
2020/12/10 03:10:14;;;;;;;;;;;;;;;20.10;39.99;100400.56;5097044;28;961;-51
2020/12/10 03:12:39;;;;;;;;;;;;;;;19.64;41.42;100399.47;5097225;28;1918;-51
2020/12/10 03:15:05;;;;;;;;;;;;;;;20.17;40.30;100407.34;5097414;28;870;-54
2020/12/10 03:17:30;;;;;;;;;;;;;;;20.73;38.81;100406.47;5097001;28;1052;-52
2020/12/10 03:19:55;;;;;;;;;;;;;;;20.27;40.09;100395.28;5097035;28;771;-55
2020/12/10 03:22:21;;;;;;;;;;;;;;;20.02;40.57;100398.53;5097560;28;823;-56
2020/12/10 03:24:46;;;;;;;;;;;;;;;19.30;41.97;100400.63;5095132;28;958;-50
2020/12/10 03:27:12;;;;;;;;;;;;;;;20.22;40.29;100405.59;5097255;28;846;-50
2020/12/10 03:29:37;;;;;;;;;;;;;;;20.88;38.80;100397.03;5097048;28;732;-51
2020/12/10 03:32:03;;;;;;;;;;;;;;;20.26;40.07;100401.06;5096735;28;1989;-55
2020/12/10 03:34:28;;;;;;;;;;;;;;;20.25;39.98;100399.47;5096931;28;802;-55
2020/12/10 03:36:54;;;;;;;;;;;;;;;19.32;42.01;100406.63;5097295;28;815;-50
2020/12/10 03:39:20;;;;;;;;;;;;;;;20.36;39.94;100411.94;5096558;28;775;-55
2020/12/10 03:41:46;;;;;;;;;;;;;;;20.89;38.65;100412.44;5097040;28;1012;-54
2020/12/10 03:44:11;;;;;;;;;;;;;;;20.28;40.09;100415.41;5078491;28;1425;-55
2020/12/10 03:46:37;;;;;;;;;;;;;;;20.11;40.09;100411.31;5096336;28;807;-55
2020/12/10 03:49:03;;;;;;;;;;;;;;;19.46;41.64;100413.03;5096787;28;802;-55
2020/12/10 03:51:28;;;;;;;;;;;;;;;20.10;40.41;100415.19;5096630;28;1897;-55
2020/12/10 03:53:54;;;;;;;;;;;;;;;20.84;38.75;100410.63;5096329;28;870;-48
2020/12/10 03:56:19;;;;;;;;;;;;;;;20.33;39.80;100412.53;5096367;28;929;-55
2020/12/10 03:58:44;;;;;;;;;;;;;;;20.20;40.15;100413.34;5096598;28;783;-49
2020/12/10 04:01:10;;;;;;;;;;;;;;;19.49;41.67;100412.41;5096405;28;790;-56
2020/12/10 04:03:35;;;;;;;;;;;;;;;20.36;39.86;100406.41;5096408;28;743;-51
2020/12/10 04:06:01;;;;;;;;;;;;;;;20.97;38.52;100393.19;5096546;28;815;-56
2020/12/10 04:08:26;;;;;;;;;;;;;;;20.35;39.89;100394.53;5096238;28;767;-52
2020/12/10 04:10:52;;;;;;;;;;;;;;;20.17;40.25;100392.69;5096278;28;1909;-56
2020/12/10 04:13:17;;;;;;;;;;;;;;;19.44;41.68;100392.38;5096767;28;815;-57
2020/12/10 04:15:42;;;;;;;;;;;;;;;20.22;40.25;100389.03;5096160;28;743;-50
2020/12/10 04:18:08;;;;;;;;;;;;;;;20.78;39.02;100385.06;5096109;28;1046;-53
2020/12/10 04:20:33;;;;;;;;;;;;;;;20.27;40.02;100380.63;5096178;28;799;-48
2020/12/10 04:22:59;;;;;;;;;;;;;;;20.26;40.33;100392.78;5096209;28;854;-49
2020/12/10 04:25:24;;;;;;;;;;;;;;;19.48;41.83;100393.41;5095821;28;878;-49
2020/12/10 04:27:49;;;;;;;;;;;;;;;19.78;41.38;100391.22;5095885;28;806;-47
2020/12/10 04:30:20;;;;;;;;;;;;;;;20.75;39.53;100396.75;5096363;28;875;-48
2020/12/10 04:32:46;;;;;;;;;;;;;;;20.58;39.40;100391.84;5096061;28;1909;-52
2020/12/10 04:35:11;;;;;;;;;;;;;;;20.39;39.88;100397.50;5094821;28;763;-49
2020/12/10 04:37:37;;;;;;;;;;;;;;;20.02;40.54;100395.78;5096229;28;751;-49
2020/12/10 04:40:03;;;;;;;;;;;;;;;19.79;41.35;100401.97;5095626;28;1004;-49
2020/12/10 04:42:28;;;;;;;;;;;;;;;20.72;39.56;100397.38;5094863;28;1287;-61
2020/12/10 04:44:54;;;;;;;;;;;;;;;20.71;39.26;100401.25;5096112;28;839;-56
2020/12/10 04:47:19;;;;;;;;;;;;;;;20.44;40.01;100400.16;5095965;28;824;-54
2020/12/10 04:49:45;;;;;;;;;;;;;;;20.10;40.33;100404.16;5094434;28;823;-49
2020/12/10 04:52:10;;;;;;;;;;;;;;;19.39;42.36;100406.25;5096009;28;1971;-49
2020/12/10 04:54:36;;;;;;;;;;;;;;;20.27;40.39;100399.97;5094531;28;764;-47
2020/12/10 04:57:02;;;;;;;;;;;;;;;20.92;39.02;100401.59;5095670;28;1023;-48
2020/12/10 04:59:27;;;;;;;;;;;;;;;20.44;40.11;100399.31;5093623;28;1396;-53
2020/12/10 05:01:54;;;;;;;;;;;;;;;20.14;40.72;100394.13;5096604;28;909;-48
2020/12/10 05:04:21;;;;;;;;;;;;;;;19.54;41.89;100402.44;5093378;28;778;-49
2020/12/10 05:06:50;;;;;;;;;;;;;;;19.90;41.21;100405.38;5100134;28;768;-57
2020/12/10 05:09:17;;;;;;;;;;;;;;;20.76;39.23;100403.91;5093950;28;954;-49
2020/12/10 05:11:42;;;;;;;;;;;;;;;20.64;39.52;100400.84;5095676;28;1917;-47
2020/12/10 05:14:07;;;;;;;;;;;;;;;20.34;40.06;100401.19;5099768;28;767;-62
2020/12/10 05:16:33;;;;;;;;;;;;;;;19.76;41.19;100397.03;5099332;28;791;-57
2020/12/10 05:19:17;;;;;;;;;;;;;;;19.50;42.39;100410.47;5093703;28;1043;-52
2020/12/10 05:21:53;;;;;;;;;;;;;;;20.59;39.88;100412.78;5102492;28;1295;-55
2020/12/10 05:24:20;;;;;;;;;;;;;;;20.41;39.82;100402.72;5118700;28;1280;-50
2020/12/10 05:26:45;;;;;;;;;;;;;;;20.29;40.37;100395.75;5105635;28;1133;-58
2020/12/10 05:29:11;;;;;;;;;;;;;;;19.82;41.03;100403.31;5099580;28;743;-48
2020/12/10 05:31:36;;;;;;;;;;;;;;;19.70;41.80;100406.56;5099406;28;1906;-51
2020/12/10 05:34:02;;;;;;;;;;;;;;;20.68;39.62;100407.41;5098377;28;961;-51
2020/12/10 05:36:31;;;;;;;;;;;;;;;20.34;40.08;100403.13;5097801;28;823;-50
2020/12/10 05:39:04;;;;;;;;;;;;;;;20.20;40.42;100402.31;5113211;28;1196;-53
2020/12/10 05:41:33;;;;;;;;;;;;;;;19.57;41.55;100399.91;5119127;28;767;-52
2020/12/10 05:44:17;;;;;;;;;;;;;;;20.00;41.05;100404.34;5119932;28;884;-48
2020/12/10 05:46:42;;;;;;;;;;;;;;;20.94;38.98;100406.81;5119563;28;830;-54
2020/12/10 05:49:08;;;;;;;;;;;;;;;20.43;40.04;100406.78;5111171;28;1012;-58
2020/12/10 05:51:46;;;;;;;;;;;;;;;20.12;40.70;100407.44;5097824;28;1979;-48
2020/12/10 05:54:12;;;;;;;;;;;;;;;19.67;41.49;100412.69;5098841;28;856;-54
2020/12/10 05:56:56;;;;;;;;;;;;;;;20.14;40.73;100413.44;5098503;28;756;-59
2020/12/10 05:59:22;;;;;;;;;;;;;;;20.94;39.01;100415.09;5098921;28;815;-48
2020/12/10 06:01:48;;;;;;;;;;;;;;;20.23;40.74;100416.34;5098673;28;843;-49
2020/12/10 06:04:14;;;;;;;;;;;;;;;20.17;40.51;100421.16;5096730;28;1009;-50
2020/12/10 06:06:39;;;;;;;;;;;;;;;19.56;42.12;100428.59;5098824;28;811;-52
2020/12/10 06:09:05;;;;;;;;;;;;;;;20.51;40.16;100414.38;5097080;28;814;-48
2020/12/10 06:11:31;;;;;;;;;;;;;;;20.58;40.00;100411.19;5098247;28;1901;-46
2020/12/10 06:14:05;;;;;;;;;;;;;;;20.17;40.58;100421.16;5099652;28;1164;-48
2020/12/10 06:16:31;;;;;;;;;;;;;;;19.70;41.64;100412.06;5118824;28;843;-60
2020/12/10 06:19:01;;;;;;;;;;;;;;;19.95;41.33;100412.72;5113670;28;1095;-49
2020/12/10 06:21:35;;;;;;;;;;;;;;;20.79;39.33;100411.56;5098835;28;816;-58
2020/12/10 06:24:21;;;;;;;;;;;;;;;20.35;40.32;100413.03;5098179;28;763;-54
2020/12/10 06:26:47;;;;;;;;;;;;;;;20.23;40.65;100409.97;5097883;28;1242;-52
2020/12/10 06:29:19;;;;;;;;;;;;;;;19.54;42.16;100411.50;5098236;28;791;-66
2020/12/10 06:32:01;;;;;;;;;;;;;;;20.47;40.36;100407.81;5097427;28;1980;-55
2020/12/10 06:34:41;;;;;;;;;;;;;;;20.54;40.08;100412.09;5096425;28;966;-56
2020/12/10 06:37:25;;;;;;;;;;;;;;;20.32;40.52;100414.47;5096667;28;948;-52
2020/12/10 06:39:58;;;;;;;;;;;;;;;19.67;41.67;100409.91;5098160;28;779;-64
2020/12/10 06:42:23;;;;;;;;;;;;;;;20.06;41.09;100411.41;5097854;28;837;-59
2020/12/10 06:44:49;;;;;;;;;;;;;;;20.90;39.13;100419.63;5097959;28;823;-55
2020/12/10 06:47:14;;;;;;;;;;;;;;;20.47;39.94;100418.06;5097993;28;893;-48
2020/12/10 06:49:40;;;;;;;;;;;;;;;20.29;40.52;100426.13;5097117;28;989;-54
2020/12/10 06:52:15;;;;;;;;;;;;;;;19.62;41.66;100426.56;5097856;28;1971;-48
2020/12/10 06:54:59;;;;;;;;;;;;;;;20.35;40.62;100421.31;5097988;28;818;-50
2020/12/10 06:57:24;;;;;;;;;;;;;;;20.94;39.19;100421.44;5097480;28;792;-51
2020/12/10 06:59:52;;;;;;;;;;;;;;;20.45;40.16;100423.88;5097740;28;751;-47
2020/12/10 07:02:19;;;;;;;;;;;;;;;20.11;40.85;100419.59;5097721;28;759;-51
2020/12/10 07:04:50;;;;;;;;;;;;;;;19.58;42.15;100425.53;5096981;28;1017;-52
2020/12/10 07:07:19;;;;;;;;;;;;;;;20.58;40.02;100418.63;5098238;28;763;-49
2020/12/10 07:09:45;;;;;;;;;;;;;;;20.65;39.70;100416.25;5097312;28;795;-54
2020/12/10 07:12:17;;;;;;;;;;;;;;;20.50;40.17;100415.47;5096212;28;1906;-49
2020/12/10 07:14:42;;;;;;;;;;;;;;;20.17;40.36;100426.66;5103962;28;1189;-53
2020/12/10 07:17:10;;;;;;;;;;;;;;;19.96;41.40;100428.16;5117661;28;779;-52
2020/12/10 07:19:35;;;;;;;;;;;;;;;20.74;39.80;100433.78;5089144;28;1087;-58
2020/12/10 07:22:00;;;;;;;;;;;;;;;20.33;40.30;100440.16;5096894;28;748;-52
2020/12/10 07:24:26;;;;;;;;;;;;;;;20.26;40.72;100436.97;5097221;28;783;-54
2020/12/10 07:26:52;;;;;;;;;;;;;;;19.53;41.88;100436.63;5095657;28;887;-55
2020/12/10 07:29:18;;;;;;;;;;;;;;;20.09;41.18;100435.66;5095651;28;875;-58
2020/12/10 07:31:43;;;;;;;;;;;;;;;20.82;39.38;100435.81;5095276;28;1997;-67
2020/12/10 07:34:11;;;;;;;;;;;;;;;20.14;40.92;100443.00;5096515;28;949;-53
2020/12/10 07:36:44;;;;;;;;;;;;;;;20.19;40.54;100434.63;5097048;28;760;-54
2020/12/10 07:39:10;;;;;;;;;;;;;;;19.33;42.42;100449.63;5096806;28;796;-52
2020/12/10 07:41:36;;;;;;;;;;;;;;;20.24;40.67;100431.75;5095394;28;1006;-53
2020/12/10 07:44:01;;;;;;;;;;;;;;;20.77;39.47;100435.91;5096887;28;842;-56
2020/12/10 07:46:28;;;;;;;;;;;;;;;20.32;40.58;100436.56;5097124;28;776;-57
2020/12/10 07:48:54;;;;;;;;;;;;;;;20.13;40.70;100425.63;5094770;28;1460;-54
2020/12/10 07:51:19;;;;;;;;;;;;;;;19.49;42.59;100441.94;5096624;28;1913;-62
2020/12/10 07:53:45;;;;;;;;;;;;;;;20.35;40.51;100437.91;5095105;28;843;-55
2020/12/10 07:56:11;;;;;;;;;;;;;;;20.76;39.65;100433.47;5096391;28;816;-49
2020/12/10 07:58:43;;;;;;;;;;;;;;;20.39;40.42;100438.91;5096562;28;751;-52
2020/12/10 08:01:09;;;;;;;;;;;;;;;20.08;41.04;100422.16;5095542;28;840;-65
2020/12/10 08:03:38;;;;;;;;;;;;;;;19.62;42.04;100432.06;5094526;28;946;-51
2020/12/10 08:06:07;;;;;;;;;;;;;;;20.49;40.18;100427.66;5094816;28;819;-51
2020/12/10 08:08:34;;;;;;;;;;;;;;;20.91;39.29;100435.88;5094987;28;867;-49
2020/12/10 08:11:10;;;;;;;;;;;;;;;20.22;40.79;100428.50;5096084;28;1910;-51
2020/12/10 08:13:35;;;;;;;;;;;;;;;19.95;41.12;100430.13;5096640;28;787;-52
2020/12/10 08:16:07;;;;;;;;;;;;;;;19.72;42.05;100425.56;5114999;28;1109;-49
2020/12/10 08:18:33;;;;;;;;;;;;;;;20.64;40.08;100423.75;5115213;28;1030;-52
2020/12/10 08:20:59;;;;;;;;;;;;;;;20.35;40.57;100421.31;5096331;28;854;-46
2020/12/10 08:23:25;;;;;;;;;;;;;;;20.40;40.25;100418.47;5096369;28;760;-63
2020/12/10 08:26:07;;;;;;;;;;;;;;;19.72;41.59;100417.28;5096025;28;763;-64
2020/12/10 08:28:33;;;;;;;;;;;;;;;20.16;41.05;100413.97;5096506;28;832;-65
2020/12/10 08:30:58;;;;;;;;;;;;;;;20.81;39.56;100417.59;5096405;28;1977;-54
2020/12/10 08:33:32;;;;;;;;;;;;;;;21.37;38.29;100403.56;5095396;28;959;-60
2020/12/10 08:35:58;;;;;;;;;;;;;;;20.76;39.65;100414.97;5101040;28;783;-46
2020/12/10 08:38:24;;;;;;;;;;;;;;;20.63;39.82;100399.19;5100655;28;725;-64
2020/12/10 08:40:54;;;;;;;;;;;;;;;20.17;40.71;100403.75;5100281;28;771;-48
2020/12/10 08:43:19;;;;;;;;;;;;;;;19.57;42.23;100396.28;5100595;28;756;-45
2020/12/10 08:45:45;;;;;;;;;;;;;;;20.52;40.33;100399.44;5100497;28;802;-48
2020/12/10 08:48:11;;;;;;;;;;;;;;;20.74;39.70;100383.25;5099712;28;550;-54
2020/12/10 08:50:36;;;;;;;;;;;;;;;20.35;40.54;100393.72;5098570;28;942;-50
2020/12/10 08:53:06;;;;;;;;;;;;;;;19.93;41.23;100387.38;5100273;28;1906;-59
2020/12/10 08:55:48;;;;;;;;;;;;;;;19.37;43.06;100398.28;5099546;28;788;-51
2020/12/10 08:58:15;;;;;;;;;;;;;;;20.57;40.21;100392.16;5100463;28;807;-50
2020/12/10 09:00:40;;;;;;;;;;;;;;;20.52;40.25;100385.63;5100456;28;796;-49
2020/12/10 09:03:06;;;;;;;;;;;;;;;20.37;40.52;100391.47;5099505;28;732;-55
2020/12/10 09:05:31;;;;;;;;;;;;;;;19.92;41.51;100396.78;5099663;28;1009;-55
2020/12/10 09:07:58;;;;;;;;;;;;;;;19.68;42.41;100397.75;5098193;28;891;-46
2020/12/10 09:10:27;;;;;;;;;;;;;;;20.59;40.22;100400.94;5099417;28;776;-58
2020/12/10 09:12:53;;;;;;;;;;;;;;;20.55;40.46;100399.94;5099724;28;1897;-50
2020/12/10 09:15:18;;;;;;;;;;;;;;;20.34;40.75;100397.59;5112143;28;1188;-57
2020/12/10 09:17:44;;;;;;;;;;;;;;;19.89;41.64;100400.16;5119956;28;1050;-46
2020/12/10 09:20:09;;;;;;;;;;;;;;;19.80;42.16;100411.91;5105398;28;933;-45
2020/12/10 09:22:35;;;;;;;;;;;;;;;20.79;40.03;100413.50;5099466;28;744;-46
2020/12/10 09:25:00;;;;;;;;;;;;;;;20.50;40.26;100407.19;5099254;28;831;-46
2020/12/10 09:27:26;;;;;;;;;;;;;;;20.33;40.91;100396.78;5099496;28;888;-49
2020/12/10 09:29:51;;;;;;;;;;;;;;;19.58;42.40;100403.47;5098153;28;783;-47
2020/12/10 09:32:16;;;;;;;;;;;;;;;19.64;42.49;100402.22;5099096;28;1913;-46
2020/12/10 09:34:42;;;;;;;;;;;;;;;20.69;40.10;100414.56;5099260;28;933;-48
2020/12/10 09:37:07;;;;;;;;;;;;;;;20.28;41.00;100399.66;5099318;28;744;-47
2020/12/10 09:39:35;;;;;;;;;;;;;;;20.19;40.99;100401.50;5097735;28;759;-45
2020/12/10 09:42:01;;;;;;;;;;;;;;;19.79;41.73;100399.22;5099574;28;807;-48
2020/12/10 09:44:26;;;;;;;;;;;;;;;19.58;42.71;100404.25;5098623;28;740;-47
2020/12/10 09:46:51;;;;;;;;;;;;;;;20.57;40.46;100397.69;5098916;28;788;-46
2020/12/10 09:49:17;;;;;;;;;;;;;;;20.40;40.75;100401.91;5098515;28;984;-46
2020/12/10 09:51:47;;;;;;;;;;;;;;;20.30;40.91;100394.66;5098028;28;1909;-44
2020/12/10 09:54:36;;;;;;;;;;;;;;;19.67;42.27;100396.13;5098688;28;858;-59
2020/12/10 09:59:28;;;;;;;;;;;;;;;20.88;39.91;100377.69;5099231;28;756;-56
2020/12/10 10:01:53;;;;;;;;;;;;;;;20.30;40.87;100385.53;5097254;28;779;-47
2020/12/10 10:04:19;;;;;;;;;;;;;;;20.28;41.06;100382.28;5098554;28;965;-56
2020/12/10 10:06:44;;;;;;;;;;;;;;;19.55;42.57;100382.81;5099143;28;823;-46
2020/12/10 10:09:10;;;;;;;;;;;;;;;20.45;41.35;100376.91;5096832;28;1014;-47
2020/12/10 10:11:35;;;;;;;;;;;;;;;20.88;40.31;100378.47;5098622;28;1982;-55
2020/12/10 10:14:01;;;;;;;;;;;;;;;20.37;41.45;100372.16;5100305;28;1113;-56
2020/12/10 10:16:29;;;;;;;;;;;;;;;20.21;41.68;100368.88;5118459;28;795;-48
2020/12/10 10:18:55;;;;;;;;;;;;;;;19.67;43.62;100368.53;5113124;28;1109;-52
2020/12/10 10:21:22;;;;;;;;;;;;;;;20.52;41.18;100368.22;5098541;28;531;-56
2020/12/10 10:23:48;;;;;;;;;;;;;;;20.59;41.08;100365.03;5098117;28;783;-48
2020/12/10 10:26:13;;;;;;;;;;;;;;;20.37;41.62;100368.56;5096906;28;930;-62
2020/12/10 10:28:39;;;;;;;;;;;;;;;19.97;42.47;100355.31;5098673;28;760;-50
2020/12/10 10:31:08;;;;;;;;;;;;;;;19.69;43.14;100349.75;5097663;28;1968;-49
2020/12/10 10:33:33;;;;;;;;;;;;;;;20.61;40.99;100351.75;5098035;28;977;-48
2020/12/10 10:35:59;;;;;;;;;;;;;;;20.61;40.91;100340.69;5098236;28;821;-55
2020/12/10 10:38:24;;;;;;;;;;;;;;;20.31;41.94;100343.00;5096315;28;849;-60
2020/12/10 10:40:50;;;;;;;;;;;;;;;20.12;41.97;100338.44;5098488;28;752;-62
2020/12/10 10:43:15;;;;;;;;;;;;;;;19.75;42.92;100336.66;5098047;28;827;-55
2020/12/10 10:45:41;;;;;;;;;;;;;;;19.70;43.20;100334.84;5096262;28;810;-58
2020/12/10 10:48:06;;;;;;;;;;;;;;;20.72;41.00;100338.53;5098364;28;783;-48
2020/12/10 10:50:32;;;;;;;;;;;;;;;20.43;41.60;100336.94;5088080;28;1545;-58
2020/12/10 10:52:57;;;;;;;;;;;;;;;20.36;41.85;100329.09;5083684;28;1979;-56
2020/12/10 10:55:22;;;;;;;;;;;;;;;19.88;42.41;100313.81;5097501;28;768;-60
2020/12/10 10:57:48;;;;;;;;;;;;;;;19.67;43.27;100324.41;5096175;28;810;-52
2020/12/10 11:00:14;;;;;;;;;;;;;;;20.47;41.41;100313.91;5097378;28;735;-52
2020/12/10 11:02:39;;;;;;;;;;;;;;;20.54;41.02;100316.25;5097789;28;743;-48
2020/12/10 11:05:04;;;;;;;;;;;;;;;20.37;41.65;100319.69;5097279;28;956;-48
2020/12/10 11:07:30;;;;;;;;;;;;;;;19.96;42.34;100315.88;5097317;28;806;-62
2020/12/10 11:09:55;;;;;;;;;;;;;;;19.71;43.17;100319.09;5097845;28;744;-46
2020/12/10 11:12:21;;;;;;;;;;;;;;;20.56;41.28;100311.22;5097307;28;1917;-48
2020/12/10 11:14:47;;;;;;;;;;;;;;;20.48;41.18;100309.19;5105108;28;1093;-51
2020/12/10 11:17:13;;;;;;;;;;;;;;;20.27;41.76;100322.66;5116605;28;898;-45
2020/12/10 11:19:38;;;;;;;;;;;;;;;19.81;42.71;100324.41;5066762;28;1020;-46
2020/12/10 11:22:04;;;;;;;;;;;;;;;19.65;43.52;100329.41;5056973;28;840;-51
2020/12/10 11:24:29;;;;;;;;;;;;;;;20.44;41.55;100325.59;5057053;28;872;-51
2020/12/10 11:26:55;;;;;;;;;;;;;;;20.61;41.05;100326.88;5056908;28;788;-48
2020/12/10 11:29:20;;;;;;;;;;;;;;;20.27;41.87;100337.28;5056827;28;823;-49
2020/12/10 11:31:46;;;;;;;;;;;;;;;20.16;41.96;100324.81;5056941;28;1913;-47
2020/12/10 11:34:11;;;;;;;;;;;;;;;19.43;43.83;100325.41;5051810;28;975;-47
2020/12/10 11:36:37;;;;;;;;;;;;;;;20.43;41.83;100315.66;5036562;28;816;-46
2020/12/10 11:39:02;;;;;;;;;;;;;;;20.62;41.10;100314.69;5036806;28;772;-56
2020/12/10 11:41:28;;;;;;;;;;;;;;;20.28;42.08;100310.50;5051897;28;865;-48
2020/12/10 11:43:53;;;;;;;;;;;;;;;19.93;42.60;100310.13;5035194;28;823;-57
2020/12/10 11:46:19;;;;;;;;;;;;;;;19.63;43.79;100307.66;5036763;28;859;-49
2020/12/10 11:48:44;;;;;;;;;;;;;;;20.48;41.84;100310.03;5038325;28;991;-59
2020/12/10 11:51:10;;;;;;;;;;;;;;;20.80;40.92;100315.66;5056120;28;1982;-55
2020/12/10 11:53:36;;;;;;;;;;;;;;;20.37;41.91;100302.28;5055237;28;903;-47
2020/12/10 11:56:01;;;;;;;;;;;;;;;19.98;42.48;100296.22;5056389;28;787;-48
2020/12/10 11:58:27;;;;;;;;;;;;;;;19.59;44.00;100294.78;5056147;28;760;-51
2020/12/10 12:00:52;;;;;;;;;;;;;;;20.50;41.69;100291.19;5056413;28;819;-60
2020/12/10 12:03:18;;;;;;;;;;;;;;;20.43;41.86;100290.81;5056288;28;820;-50
2020/12/10 12:05:43;;;;;;;;;;;;;;;20.25;42.06;100278.78;5056027;28;958;-52
2020/12/10 12:08:09;;;;;;;;;;;;;;;19.80;42.95;100276.72;5055535;28;848;-60
2020/12/10 12:10:34;;;;;;;;;;;;;;;19.34;44.57;100276.78;5056321;28;856;-54
2020/12/10 12:13:01;;;;;;;;;;;;;;;20.47;41.79;100280.78;5056248;28;1906;-47
2020/12/10 12:15:27;;;;;;;;;;;;;;;20.52;41.48;100271.53;5069184;28;1094;-53
2020/12/10 12:17:54;;;;;;;;;;;;;;;20.17;42.58;100266.56;5087340;28;1019;-48
2020/12/10 12:20:23;;;;;;;;;;;;;;;19.75;43.06;100262.97;5100740;28;960;-58
2020/12/10 12:22:49;;;;;;;;;;;;;;;19.61;43.81;100265.75;5095809;28;895;-48
2020/12/10 12:25:14;;;;;;;;;;;;;;;20.63;41.47;100261.06;5096028;28;1200;-61
2020/12/10 12:27:40;;;;;;;;;;;;;;;20.47;41.57;100258.69;5096417;28;739;-50
2020/12/10 12:30:05;;;;;;;;;;;;;;;20.27;42.09;100251.72;5095800;28;760;-60
2020/12/10 12:32:31;;;;;;;;;;;;;;;19.86;42.89;100249.84;5096276;28;1902;-52
2020/12/10 12:34:56;;;;;;;;;;;;;;;19.70;43.72;100249.31;5094274;28;974;-49
2020/12/10 12:37:21;;;;;;;;;;;;;;;20.74;41.20;100250.63;5095829;28;771;-52
2020/12/10 12:39:47;;;;;;;;;;;;;;;20.65;41.15;100242.22;5096238;28;776;-51
2020/12/10 12:42:12;;;;;;;;;;;;;;;20.46;41.84;100248.75;5096175;28;986;-52
2020/12/10 12:44:38;;;;;;;;;;;;;;;19.66;43.42;100251.88;5095808;28;747;-52
2020/12/10 12:47:06;;;;;;;;;;;;;;;20.08;42.75;100251.84;5096154;28;783;-47
2020/12/10 12:49:31;;;;;;;;;;;;;;;20.83;41.12;100249.56;5095979;28;977;-52
2020/12/10 12:51:57;;;;;;;;;;;;;;;20.36;42.15;100265.56;5095587;28;1972;-47
2020/12/10 12:54:22;;;;;;;;;;;;;;;20.15;42.67;100256.94;5096136;28;854;-47